Terminal Aerodrome Forecast
Issued by NWS Milwaukee/Sullivan, WI

Home | Current Version | Previous Version | Text Only | Print | Product List | Glossary On
Versions: 1 2 3 4 5 6 7 8 9 10 11 12 13 14 15 16 17 18 19 20 21 22 23 24 25 26 27 28 29
000
FTUS43 KMKX 250907 AAA
TAFMKE
TAF AMD
KMKE 250907Z 2509/2612 03013G20KT 5SM -RA BR OVC005
     FM251500 06014G23KT 2SM -SHRA BR OVC005
     FM260000 06013KT 1 1/2SM -SHRA BR OVC005
     FM260600 08010KT 1SM -RA BR OVC003=

USA.gov is the U.S. government's official web portal to all federal, state and local government web resources and services.